sensor_id;sensor_type;location;lat;lon;timestamp;P1;durP1;ratioP1;P2;durP2;ratioP2
50757;SDS011;36732;47.980;11.652;2022-12-07T00:01:20;9.35;;;7.22;;
50757;SDS011;36732;47.980;11.652;2022-12-07T00:03:49;9.73;;;7.18;;
50757;SDS011;36732;47.980;11.652;2022-12-07T00:06:18;10.85;;;7.38;;
50757;SDS011;36732;47.980;11.652;2022-12-07T00:08:44;9.55;;;7.38;;
50757;SDS011;36732;47.980;11.652;2022-12-07T00:11:12;10.57;;;7.55;;
50757;SDS011;36732;47.980;11.652;2022-12-07T00:13:41;9.30;;;7.43;;
50757;SDS011;36732;47.980;11.652;2022-12-07T00:16:08;11.35;;;8.25;;
50757;SDS011;36732;47.980;11.652;2022-12-07T00:18:39;9.65;;;7.07;;
50757;SDS011;36732;47.980;11.652;2022-12-07T00:21:10;9.30;;;7.28;;
50757;SDS011;36732;47.980;11.652;2022-12-07T00:23:45;7.97;;;6.60;;
50757;SDS011;36732;47.980;11.652;2022-12-07T00:26:17;9.15;;;7.45;;
50757;SDS011;36732;47.980;11.652;2022-12-07T00:28:55;12.98;;;7.57;;
50757;SDS011;36732;47.980;11.652;2022-12-07T00:31:25;10.37;;;8.27;;
50757;SDS011;36732;47.980;11.652;2022-12-07T00:33:54;9.40;;;6.85;;
50757;SDS011;36732;47.980;11.652;2022-12-07T00:36:21;9.00;;;7.28;;
50757;SDS011;36732;47.980;11.652;2022-12-07T00:38:48;10.43;;;7.63;;
50757;SDS011;36732;47.980;11.652;2022-12-07T00:41:15;7.13;;;6.15;;
50757;SDS011;36732;47.980;11.652;2022-12-07T00:43:47;8.25;;;7.18;;
50757;SDS011;36732;47.980;11.652;2022-12-07T00:46:14;9.15;;;7.25;;
50757;SDS011;36732;47.980;11.652;2022-12-07T00:48:41;9.18;;;7.22;;
50757;SDS011;36732;47.980;11.652;2022-12-07T00:51:07;9.18;;;7.57;;
50757;SDS011;36732;47.980;11.652;2022-12-07T00:53:39;9.02;;;7.22;;
50757;SDS011;36732;47.980;11.652;2022-12-07T00:56:06;9.45;;;7.43;;
50757;SDS011;36732;47.980;11.652;2022-12-07T00:58:32;7.05;;;5.72;;
50757;SDS011;36732;47.980;11.652;2022-12-07T01:00:59;9.35;;;7.22;;
50757;SDS011;36732;47.980;11.652;2022-12-07T01:03:27;9.20;;;7.05;;
50757;SDS011;36732;47.980;11.652;2022-12-07T01:05:53;11.20;;;6.65;;
50757;SDS011;36732;47.980;11.652;2022-12-07T01:08:20;8.85;;;7.45;;
50757;SDS011;36732;47.980;11.652;2022-12-07T01:10:47;9.10;;;7.43;;
50757;SDS011;36732;47.980;11.652;2022-12-07T01:13:14;8.82;;;7.18;;
50757;SDS011;36732;47.980;11.652;2022-12-07T01:15:42;8.07;;;6.70;;
50757;SDS011;36732;47.980;11.652;2022-12-07T01:18:08;8.15;;;6.78;;
50757;SDS011;36732;47.980;11.652;2022-12-07T01:20:34;8.45;;;7.10;;
50757;SDS011;36732;47.980;11.652;2022-12-07T01:23:01;8.35;;;6.80;;
50757;SDS011;36732;47.980;11.652;2022-12-07T01:25:28;9.73;;;6.95;;
50757;SDS011;36732;47.980;11.652;2022-12-07T01:27:53;8.65;;;7.32;;
50757;SDS011;36732;47.980;11.652;2022-12-07T01:30:19;7.30;;;6.60;;
50757;SDS011;36732;47.980;11.652;2022-12-07T01:32:45;7.68;;;6.78;;
50757;SDS011;36732;47.980;11.652;2022-12-07T01:35:11;8.60;;;6.60;;
50757;SDS011;36732;47.980;11.652;2022-12-07T01:37:37;8.82;;;7.20;;
50757;SDS011;36732;47.980;11.652;2022-12-07T01:40:04;8.73;;;7.20;;
50757;SDS011;36732;47.980;11.652;2022-12-07T01:42:32;9.15;;;7.35;;
50757;SDS011;36732;47.980;11.652;2022-12-07T01:48:05;9.75;;;6.00;;
50757;SDS011;36732;47.980;11.652;2022-12-07T01:50:33;8.07;;;6.57;;
50757;SDS011;36732;47.980;11.652;2022-12-07T01:52:59;8.10;;;6.55;;
50757;SDS011;36732;47.980;11.652;2022-12-07T01:55:29;7.45;;;6.43;;
50757;SDS011;36732;47.980;11.652;2022-12-07T01:57:55;8.18;;;6.88;;
50757;SDS011;36732;47.980;11.652;2022-12-07T02:00:21;7.80;;;6.30;;
50757;SDS011;36732;47.980;11.652;2022-12-07T02:05:20;8.65;;;7.05;;
50757;SDS011;36732;47.980;11.652;2022-12-07T02:07:48;8.13;;;6.95;;
50757;SDS011;36732;47.980;11.652;2022-12-07T02:10:20;6.90;;;6.20;;
50757;SDS011;36732;47.980;11.652;2022-12-07T02:13:14;7.55;;;6.07;;
50757;SDS011;36732;47.980;11.652;2022-12-07T02:18:44;8.27;;;7.00;;
50757;SDS011;36732;47.980;11.652;2022-12-07T02:30:12;8.20;;;6.45;;
50757;SDS011;36732;47.980;11.652;2022-12-07T02:32:45;9.52;;;6.78;;
50757;SDS011;36732;47.980;11.652;2022-12-07T02:38:08;7.75;;;5.82;;
50757;SDS011;36732;47.980;11.652;2022-12-07T02:41:23;7.72;;;6.30;;
50757;SDS011;36732;47.980;11.652;2022-12-07T02:43:55;8.27;;;6.35;;
50757;SDS011;36732;47.980;11.652;2022-12-07T02:46:29;8.60;;;7.28;;
50757;SDS011;36732;47.980;11.652;2022-12-07T02:48:58;7.20;;;6.10;;
50757;SDS011;36732;47.980;11.652;2022-12-07T02:51:25;7.28;;;6.20;;
50757;SDS011;36732;47.980;11.652;2022-12-07T02:53:56;8.55;;;6.95;;
50757;SDS011;36732;47.980;11.652;2022-12-07T02:56:26;8.75;;;6.68;;
50757;SDS011;36732;47.980;11.652;2022-12-07T02:59:07;8.10;;;6.40;;
50757;SDS011;36732;47.980;11.652;2022-12-07T03:04:40;8.10;;;6.80;;
50757;SDS011;36732;47.980;11.652;2022-12-07T03:07:29;8.60;;;6.93;;
50757;SDS011;36732;47.980;11.652;2022-12-07T03:19:01;8.30;;;6.40;;
50757;SDS011;36732;47.980;11.652;2022-12-07T03:21:42;8.95;;;6.80;;
50757;SDS011;36732;47.980;11.652;2022-12-07T03:24:17;7.30;;;6.40;;
50757;SDS011;36732;47.980;11.652;2022-12-07T03:26:48;7.55;;;6.65;;
50757;SDS011;36732;47.980;11.652;2022-12-07T03:29:20;8.45;;;7.10;;
50757;SDS011;36732;47.980;11.652;2022-12-07T03:32:00;9.10;;;6.43;;
50757;SDS011;36732;47.980;11.652;2022-12-07T03:34:48;8.57;;;7.03;;
50757;SDS011;36732;47.980;11.652;2022-12-07T03:40:14;8.10;;;6.18;;
50757;SDS011;36732;47.980;11.652;2022-12-07T03:42:49;7.13;;;6.25;;
50757;SDS011;36732;47.980;11.652;2022-12-07T03:45:15;7.60;;;6.38;;
50757;SDS011;36732;47.980;11.652;2022-12-07T03:47:50;8.35;;;6.90;;
50757;SDS011;36732;47.980;11.652;2022-12-07T03:50:44;7.97;;;6.30;;
50757;SDS011;36732;47.980;11.652;2022-12-07T03:53:38;7.75;;;6.05;;
50757;SDS011;36732;47.980;11.652;2022-12-07T03:56:10;8.10;;;6.45;;
50757;SDS011;36732;47.980;11.652;2022-12-07T03:58:37;8.45;;;7.00;;
50757;SDS011;36732;47.980;11.652;2022-12-07T04:01:04;8.02;;;6.50;;
50757;SDS011;36732;47.980;11.652;2022-12-07T04:03:29;7.50;;;5.97;;
50757;SDS011;36732;47.980;11.652;2022-12-07T04:05:55;8.57;;;7.28;;
50757;SDS011;36732;47.980;11.652;2022-12-07T04:08:22;8.85;;;7.07;;
50757;SDS011;36732;47.980;11.652;2022-12-07T04:10:48;9.05;;;7.53;;
50757;SDS011;36732;47.980;11.652;2022-12-07T04:13:14;7.47;;;6.22;;
50757;SDS011;36732;47.980;11.652;2022-12-07T04:15:39;7.68;;;6.70;;
50757;SDS011;36732;47.980;11.652;2022-12-07T04:18:05;8.63;;;6.00;;
50757;SDS011;36732;47.980;11.652;2022-12-07T04:20:31;6.47;;;5.78;;
50757;SDS011;36732;47.980;11.652;2022-12-07T04:22:57;7.15;;;6.20;;
50757;SDS011;36732;47.980;11.652;2022-12-07T04:25:23;6.60;;;5.72;;
50757;SDS011;36732;47.980;11.652;2022-12-07T04:27:48;6.82;;;6.13;;
50757;SDS011;36732;47.980;11.652;2022-12-07T04:30:14;7.97;;;6.25;;
50757;SDS011;36732;47.980;11.652;2022-12-07T04:32:40;7.10;;;6.13;;
50757;SDS011;36732;47.980;11.652;2022-12-07T04:35:06;7.30;;;6.03;;
50757;SDS011;36732;47.980;11.652;2022-12-07T04:37:32;7.43;;;6.55;;
50757;SDS011;36732;47.980;11.652;2022-12-07T04:39:58;7.35;;;6.35;;
50757;SDS011;36732;47.980;11.652;2022-12-07T04:42:23;7.70;;;6.43;;
50757;SDS011;36732;47.980;11.652;2022-12-07T04:44:49;7.78;;;6.35;;
50757;SDS011;36732;47.980;11.652;2022-12-07T04:47:15;7.90;;;6.30;;
50757;SDS011;36732;47.980;11.652;2022-12-07T04:49:41;7.10;;;6.40;;
50757;SDS011;36732;47.980;11.652;2022-12-07T04:52:07;7.55;;;6.68;;
50757;SDS011;36732;47.980;11.652;2022-12-07T04:54:33;7.40;;;6.22;;
50757;SDS011;36732;47.980;11.652;2022-12-07T04:56:58;7.45;;;6.43;;
50757;SDS011;36732;47.980;11.652;2022-12-07T04:59:24;8.05;;;5.80;;
50757;SDS011;36732;47.980;11.652;2022-12-07T05:01:50;7.70;;;6.45;;
50757;SDS011;36732;47.980;11.652;2022-12-07T05:04:16;7.50;;;6.32;;
50757;SDS011;36732;47.980;11.652;2022-12-07T05:06:43;7.55;;;6.32;;
50757;SDS011;36732;47.980;11.652;2022-12-07T05:09:09;6.85;;;5.90;;
50757;SDS011;36732;47.980;11.652;2022-12-07T05:11:35;7.97;;;6.25;;
50757;SDS011;36732;47.980;11.652;2022-12-07T05:14:04;8.30;;;6.72;;
50757;SDS011;36732;47.980;11.652;2022-12-07T05:16:37;13.50;;;9.75;;
50757;SDS011;36732;47.980;11.652;2022-12-07T05:19:04;8.15;;;6.68;;
50757;SDS011;36732;47.980;11.652;2022-12-07T05:21:30;9.25;;;6.53;;
50757;SDS011;36732;47.980;11.652;2022-12-07T05:23:56;7.07;;;5.95;;
50757;SDS011;36732;47.980;11.652;2022-12-07T05:26:21;6.50;;;5.68;;
50757;SDS011;36732;47.980;11.652;2022-12-07T05:28:53;7.90;;;5.88;;
50757;SDS011;36732;47.980;11.652;2022-12-07T05:31:20;7.05;;;6.10;;
50757;SDS011;36732;47.980;11.652;2022-12-07T05:33:47;6.47;;;5.60;;
50757;SDS011;36732;47.980;11.652;2022-12-07T05:36:13;6.55;;;5.85;;
50757;SDS011;36732;47.980;11.652;2022-12-07T05:38:39;6.95;;;5.68;;
50757;SDS011;36732;47.980;11.652;2022-12-07T05:41:05;6.18;;;5.55;;
50757;SDS011;36732;47.980;11.652;2022-12-07T05:43:33;6.78;;;5.93;;
50757;SDS011;36732;47.980;11.652;2022-12-07T05:45:58;5.22;;;4.50;;
50757;SDS011;36732;47.980;11.652;2022-12-07T05:48:24;7.45;;;5.25;;
50757;SDS011;36732;47.980;11.652;2022-12-07T05:50:51;6.47;;;5.30;;
50757;SDS011;36732;47.980;11.652;2022-12-07T05:53:18;6.28;;;5.53;;
50757;SDS011;36732;47.980;11.652;2022-12-07T05:55:44;6.13;;;5.28;;
50757;SDS011;36732;47.980;11.652;2022-12-07T05:58:10;7.22;;;6.13;;
50757;SDS011;36732;47.980;11.652;2022-12-07T06:00:54;6.05;;;5.00;;
50757;SDS011;36732;47.980;11.652;2022-12-07T06:03:20;5.82;;;5.22;;
50757;SDS011;36732;47.980;11.652;2022-12-07T06:05:46;6.05;;;5.45;;
50757;SDS011;36732;47.980;11.652;2022-12-07T06:08:12;7.03;;;5.55;;
50757;SDS011;36732;47.980;11.652;2022-12-07T06:10:39;6.65;;;5.20;;
50757;SDS011;36732;47.980;11.652;2022-12-07T06:13:06;5.88;;;5.30;;
50757;SDS011;36732;47.980;11.652;2022-12-07T06:15:35;5.72;;;5.10;;
50757;SDS011;36732;47.980;11.652;2022-12-07T06:18:01;5.70;;;5.07;;
50757;SDS011;36732;47.980;11.652;2022-12-07T06:20:27;5.85;;;5.25;;
50757;SDS011;36732;47.980;11.652;2022-12-07T06:22:53;5.80;;;5.07;;
50757;SDS011;36732;47.980;11.652;2022-12-07T06:25:18;5.97;;;5.00;;
50757;SDS011;36732;47.980;11.652;2022-12-07T06:27:44;6.40;;;5.18;;
50757;SDS011;36732;47.980;11.652;2022-12-07T06:30:10;4.50;;;4.10;;
50757;SDS011;36732;47.980;11.652;2022-12-07T06:32:36;6.70;;;4.50;;
50757;SDS011;36732;47.980;11.652;2022-12-07T06:35:02;5.85;;;5.25;;
50757;SDS011;36732;47.980;11.652;2022-12-07T06:37:29;5.18;;;4.68;;
50757;SDS011;36732;47.980;11.652;2022-12-07T06:39:54;5.47;;;4.88;;
50757;SDS011;36732;47.980;11.652;2022-12-07T06:42:20;5.20;;;4.40;;
50757;SDS011;36732;47.980;11.652;2022-12-07T06:44:46;5.38;;;4.80;;
50757;SDS011;36732;47.980;11.652;2022-12-07T06:47:11;6.40;;;4.90;;
50757;SDS011;36732;47.980;11.652;2022-12-07T06:49:37;5.50;;;4.90;;
50757;SDS011;36732;47.980;11.652;2022-12-07T06:52:03;5.28;;;4.78;;
50757;SDS011;36732;47.980;11.652;2022-12-07T06:54:30;5.68;;;4.88;;
50757;SDS011;36732;47.980;11.652;2022-12-07T06:56:56;5.50;;;4.95;;
50757;SDS011;36732;47.980;11.652;2022-12-07T06:59:22;6.90;;;6.20;;
50757;SDS011;36732;47.980;11.652;2022-12-07T07:01:47;5.93;;;5.32;;
50757;SDS011;36732;47.980;11.652;2022-12-07T07:04:13;5.35;;;4.85;;
50757;SDS011;36732;47.980;11.652;2022-12-07T07:06:39;4.88;;;4.38;;
50757;SDS011;36732;47.980;11.652;2022-12-07T07:09:04;6.85;;;4.53;;
50757;SDS011;36732;47.980;11.652;2022-12-07T07:11:30;4.68;;;4.10;;
50757;SDS011;36732;47.980;11.652;2022-12-07T07:13:56;5.57;;;5.07;;
50757;SDS011;36732;47.980;11.652;2022-12-07T07:16:26;5.85;;;5.25;;
50757;SDS011;36732;47.980;11.652;2022-12-07T07:18:56;5.15;;;4.65;;
50757;SDS011;36732;47.980;11.652;2022-12-07T07:21:22;5.90;;;5.30;;
50757;SDS011;36732;47.980;11.652;2022-12-07T07:23:48;5.43;;;4.93;;
50757;SDS011;36732;47.980;11.652;2022-12-07T07:26:14;5.57;;;4.97;;
50757;SDS011;36732;47.980;11.652;2022-12-07T07:28:40;5.70;;;5.15;;
50757;SDS011;36732;47.980;11.652;2022-12-07T07:31:05;5.90;;;5.30;;
50757;SDS011;36732;47.980;11.652;2022-12-07T07:33:31;5.90;;;5.30;;
50757;SDS011;36732;47.980;11.652;2022-12-07T07:35:57;8.15;;;5.93;;
50757;SDS011;36732;47.980;11.652;2022-12-07T07:38:23;6.13;;;5.53;;
50757;SDS011;36732;47.980;11.652;2022-12-07T07:40:48;6.13;;;5.55;;
50757;SDS011;36732;47.980;11.652;2022-12-07T07:43:14;8.88;;;7.65;;
50757;SDS011;36732;47.980;11.652;2022-12-07T07:45:40;7.65;;;6.38;;
50757;SDS011;36732;47.980;11.652;2022-12-07T07:48:06;6.78;;;5.95;;
50757;SDS011;36732;47.980;11.652;2022-12-07T07:50:31;5.93;;;5.32;;
50757;SDS011;36732;47.980;11.652;2022-12-07T07:52:57;6.05;;;5.45;;
50757;SDS011;36732;47.980;11.652;2022-12-07T07:55:23;6.10;;;5.43;;
50757;SDS011;36732;47.980;11.652;2022-12-07T07:57:49;6.25;;;5.65;;
50757;SDS011;36732;47.980;11.652;2022-12-07T08:00:15;6.20;;;5.25;;
50757;SDS011;36732;47.980;11.652;2022-12-07T08:02:41;6.47;;;5.85;;
50757;SDS011;36732;47.980;11.652;2022-12-07T08:05:08;7.07;;;5.38;;
50757;SDS011;36732;47.980;11.652;2022-12-07T08:07:35;5.50;;;4.97;;
50757;SDS011;36732;47.980;11.652;2022-12-07T08:10:01;6.22;;;5.63;;
50757;SDS011;36732;47.980;11.652;2022-12-07T08:12:27;6.40;;;5.80;;
50757;SDS011;36732;47.980;11.652;2022-12-07T08:14:53;6.43;;;5.72;;
50757;SDS011;36732;47.980;11.652;2022-12-07T08:17:19;7.20;;;5.97;;
50757;SDS011;36732;47.980;11.652;2022-12-07T08:19:44;7.13;;;6.43;;
50757;SDS011;36732;47.980;11.652;2022-12-07T08:22:10;7.07;;;6.38;;
50757;SDS011;36732;47.980;11.652;2022-12-07T08:24:36;9.88;;;7.70;;
50757;SDS011;36732;47.980;11.652;2022-12-07T08:27:02;10.98;;;8.27;;
50757;SDS011;36732;47.980;11.652;2022-12-07T08:29:28;8.82;;;7.60;;
50757;SDS011;36732;47.980;11.652;2022-12-07T08:31:54;8.65;;;7.75;;
50757;SDS011;36732;47.980;11.652;2022-12-07T08:34:20;9.23;;;8.27;;
50757;SDS011;36732;47.980;11.652;2022-12-07T08:36:45;8.40;;;7.57;;
50757;SDS011;36732;47.980;11.652;2022-12-07T08:39:11;7.03;;;6.35;;
50757;SDS011;36732;47.980;11.652;2022-12-07T08:41:37;7.78;;;6.78;;
50757;SDS011;36732;47.980;11.652;2022-12-07T08:44:03;6.70;;;5.80;;
50757;SDS011;36732;47.980;11.652;2022-12-07T08:49:13;6.70;;;6.07;;
50757;SDS011;36732;47.980;11.652;2022-12-07T08:54:13;8.48;;;6.45;;
50757;SDS011;36732;47.980;11.652;2022-12-07T08:56:41;7.68;;;6.35;;
50757;SDS011;36732;47.980;11.652;2022-12-07T08:59:09;8.18;;;7.32;;
50757;SDS011;36732;47.980;11.652;2022-12-07T09:01:35;7.40;;;6.07;;
50757;SDS011;36732;47.980;11.652;2022-12-07T09:04:01;7.03;;;6.38;;
50757;SDS011;36732;47.980;11.652;2022-12-07T09:06:27;8.43;;;6.90;;
50757;SDS011;36732;47.980;11.652;2022-12-07T09:08:54;11.32;;;8.43;;
50757;SDS011;36732;47.980;11.652;2022-12-07T09:11:23;11.65;;;8.65;;
50757;SDS011;36732;47.980;11.652;2022-12-07T09:13:49;10.48;;;7.45;;
50757;SDS011;36732;47.980;11.652;2022-12-07T09:16:14;8.70;;;7.40;;
50757;SDS011;36732;47.980;11.652;2022-12-07T09:18:40;8.18;;;7.10;;
50757;SDS011;36732;47.980;11.652;2022-12-07T09:21:06;7.57;;;6.38;;
50757;SDS011;36732;47.980;11.652;2022-12-07T09:23:33;7.63;;;6.82;;
50757;SDS011;36732;47.980;11.652;2022-12-07T09:25:59;7.85;;;6.90;;
50757;SDS011;36732;47.980;11.652;2022-12-07T09:28:32;7.90;;;6.18;;
50757;SDS011;36732;47.980;11.652;2022-12-07T09:30:58;6.82;;;6.05;;
50757;SDS011;36732;47.980;11.652;2022-12-07T09:33:24;8.23;;;6.78;;
50757;SDS011;36732;47.980;11.652;2022-12-07T09:35:51;8.18;;;7.38;;
50757;SDS011;36732;47.980;11.652;2022-12-07T09:38:18;8.65;;;6.63;;
50757;SDS011;36732;47.980;11.652;2022-12-07T09:40:45;7.80;;;6.63;;
50757;SDS011;36732;47.980;11.652;2022-12-07T09:43:19;6.90;;;6.20;;
50757;SDS011;36732;47.980;11.652;2022-12-07T09:45:48;7.20;;;6.32;;
50757;SDS011;36732;47.980;11.652;2022-12-07T09:48:19;7.00;;;6.30;;
50757;SDS011;36732;47.980;11.652;2022-12-07T09:50:48;7.22;;;6.45;;
50757;SDS011;36732;47.980;11.652;2022-12-07T09:53:27;6.15;;;5.50;;
50757;SDS011;36732;47.980;11.652;2022-12-07T09:55:59;7.13;;;6.38;;
50757;SDS011;36732;47.980;11.652;2022-12-07T09:58:27;6.80;;;5.85;;
50757;SDS011;36732;47.980;11.652;2022-12-07T10:00:59;6.78;;;6.13;;
50757;SDS011;36732;47.980;11.652;2022-12-07T10:03:36;8.00;;;6.88;;
50757;SDS011;36732;47.980;11.652;2022-12-07T10:06:05;6.65;;;5.82;;
50757;SDS011;36732;47.980;11.652;2022-12-07T10:08:32;7.53;;;6.57;;
50757;SDS011;36732;47.980;11.652;2022-12-07T10:10:58;7.88;;;7.07;;
50757;SDS011;36732;47.980;11.652;2022-12-07T10:13:35;7.20;;;6.50;;
50757;SDS011;36732;47.980;11.652;2022-12-07T10:16:05;7.57;;;6.78;;
50757;SDS011;36732;47.980;11.652;2022-12-07T10:18:57;11.77;;;8.38;;
50757;SDS011;36732;47.980;11.652;2022-12-07T10:24:38;7.70;;;6.90;;
50757;SDS011;36732;47.980;11.652;2022-12-07T10:27:16;7.90;;;6.97;;
50757;SDS011;36732;47.980;11.652;2022-12-07T10:29:52;7.30;;;6.47;;
50757;SDS011;36732;47.980;11.652;2022-12-07T10:34:44;7.40;;;6.63;;
50757;SDS011;36732;47.980;11.652;2022-12-07T10:39:54;7.50;;;6.70;;
50757;SDS011;36732;47.980;11.652;2022-12-07T10:45:13;10.23;;;8.05;;
50757;SDS011;36732;47.980;11.652;2022-12-07T11:01:41;6.88;;;6.18;;
50757;SDS011;36732;47.980;11.652;2022-12-07T11:10:26;7.25;;;6.55;;
50757;SDS011;36732;47.980;11.652;2022-12-07T11:18:55;6.28;;;5.57;;
50757;SDS011;36732;47.980;11.652;2022-12-07T11:22:14;6.82;;;6.10;;
50757;SDS011;36732;47.980;11.652;2022-12-07T11:25:11;6.00;;;5.43;;
50757;SDS011;36732;47.980;11.652;2022-12-07T11:28:20;6.50;;;5.22;;
50757;SDS011;36732;47.980;11.652;2022-12-07T11:33:53;6.38;;;5.78;;
50757;SDS011;36732;47.980;11.652;2022-12-07T11:37:16;6.35;;;5.75;;
50757;SDS011;36732;47.980;11.652;2022-12-07T11:39:59;6.03;;;5.43;;
50757;SDS011;36732;47.980;11.652;2022-12-07T11:43:01;6.65;;;5.68;;
50757;SDS011;36732;47.980;11.652;2022-12-07T11:45:37;6.85;;;5.85;;
50757;SDS011;36732;47.980;11.652;2022-12-07T11:48:51;8.15;;;6.60;;
50757;SDS011;36732;47.980;11.652;2022-12-07T11:51:00;6.32;;;5.72;;
50757;SDS011;36732;47.980;11.652;2022-12-07T11:53:38;7.32;;;6.60;;
50757;SDS011;36732;47.980;11.652;2022-12-07T11:56:12;7.60;;;6.80;;
50757;SDS011;36732;47.980;11.652;2022-12-07T11:59:00;7.20;;;6.50;;
50757;SDS011;36732;47.980;11.652;2022-12-07T12:06:39;7.15;;;6.40;;
50757;SDS011;36732;47.980;11.652;2022-12-07T12:09:17;7.28;;;6.43;;
50757;SDS011;36732;47.980;11.652;2022-12-07T12:12:02;6.55;;;5.40;;
50757;SDS011;36732;47.980;11.652;2022-12-07T12:21:25;6.22;;;5.63;;
50757;SDS011;36732;47.980;11.652;2022-12-07T12:24:16;6.40;;;5.15;;
50757;SDS011;36732;47.980;11.652;2022-12-07T12:26:49;6.07;;;5.38;;
50757;SDS011;36732;47.980;11.652;2022-12-07T12:29:21;6.38;;;5.63;;
50757;SDS011;36732;47.980;11.652;2022-12-07T12:40:52;7.40;;;5.93;;
50757;SDS011;36732;47.980;11.652;2022-12-07T12:54:25;8.35;;;6.45;;
50757;SDS011;36732;47.980;11.652;2022-12-07T13:12:55;6.07;;;5.45;;
50757;SDS011;36732;47.980;11.652;2022-12-07T13:15:54;7.28;;;5.57;;
50757;SDS011;36732;47.980;11.652;2022-12-07T13:18:40;5.63;;;5.13;;
50757;SDS011;36732;47.980;11.652;2022-12-07T13:31:48;6.53;;;5.93;;
50757;SDS011;36732;47.980;11.652;2022-12-07T13:37:24;6.55;;;5.68;;
50757;SDS011;36732;47.980;11.652;2022-12-07T13:39:54;5.50;;;5.00;;
50757;SDS011;36732;47.980;11.652;2022-12-07T13:45:01;6.35;;;5.75;;
50757;SDS011;36732;47.980;11.652;2022-12-07T13:48:14;6.28;;;5.57;;
50757;SDS011;36732;47.980;11.652;2022-12-07T13:50:53;6.05;;;5.07;;
50757;SDS011;36732;47.980;11.652;2022-12-07T13:53:21;6.90;;;6.07;;
50757;SDS011;36732;47.980;11.652;2022-12-07T13:55:48;6.15;;;5.55;;
50757;SDS011;36732;47.980;11.652;2022-12-07T13:58:14;7.00;;;6.30;;
50757;SDS011;36732;47.980;11.652;2022-12-07T14:00:41;6.13;;;5.53;;
50757;SDS011;36732;47.980;11.652;2022-12-07T14:05:43;7.22;;;5.95;;
50757;SDS011;36732;47.980;11.652;2022-12-07T14:10:39;6.32;;;5.40;;
50757;SDS011;36732;47.980;11.652;2022-12-07T14:13:36;6.97;;;6.28;;
50757;SDS011;36732;47.980;11.652;2022-12-07T14:16:25;6.57;;;5.88;;
50757;SDS011;36732;47.980;11.652;2022-12-07T14:19:00;7.15;;;6.45;;
50757;SDS011;36732;47.980;11.652;2022-12-07T14:21:30;6.30;;;5.70;;
50757;SDS011;36732;47.980;11.652;2022-12-07T14:24:09;6.80;;;6.10;;
50757;SDS011;36732;47.980;11.652;2022-12-07T14:26:43;8.38;;;7.38;;
50757;SDS011;36732;47.980;11.652;2022-12-07T14:31:53;7.85;;;5.72;;
50757;SDS011;36732;47.980;11.652;2022-12-07T14:34:20;7.30;;;6.35;;
50757;SDS011;36732;47.980;11.652;2022-12-07T14:36:47;7.68;;;6.35;;
50757;SDS011;36732;47.980;11.652;2022-12-07T14:39:13;7.68;;;6.35;;
50757;SDS011;36732;47.980;11.652;2022-12-07T14:41:38;8.60;;;7.13;;
50757;SDS011;36732;47.980;11.652;2022-12-07T14:44:16;7.88;;;6.93;;
50757;SDS011;36732;47.980;11.652;2022-12-07T14:46:47;9.05;;;6.70;;
50757;SDS011;36732;47.980;11.652;2022-12-07T14:49:14;7.38;;;6.68;;
50757;SDS011;36732;47.980;11.652;2022-12-07T14:51:41;8.95;;;6.78;;
50757;SDS011;36732;47.980;11.652;2022-12-07T14:54:18;8.75;;;7.63;;
50757;SDS011;36732;47.980;11.652;2022-12-07T14:56:45;11.20;;;7.75;;
50757;SDS011;36732;47.980;11.652;2022-12-07T14:59:16;9.88;;;7.53;;
50757;SDS011;36732;47.980;11.652;2022-12-07T15:01:42;9.68;;;7.93;;
50757;SDS011;36732;47.980;11.652;2022-12-07T15:04:08;9.45;;;8.38;;
50757;SDS011;36732;47.980;11.652;2022-12-07T15:06:33;8.57;;;7.53;;
50757;SDS011;36732;47.980;11.652;2022-12-07T15:08:59;8.07;;;7.28;;
50757;SDS011;36732;47.980;11.652;2022-12-07T15:11:25;8.48;;;7.38;;
50757;SDS011;36732;47.980;11.652;2022-12-07T15:13:51;6.68;;;5.97;;
50757;SDS011;36732;47.980;11.652;2022-12-07T15:16:37;6.95;;;6.30;;
50757;SDS011;36732;47.980;11.652;2022-12-07T15:19:06;7.30;;;6.60;;
50757;SDS011;36732;47.980;11.652;2022-12-07T15:21:41;6.47;;;5.78;;
50757;SDS011;36732;47.980;11.652;2022-12-07T15:24:08;8.88;;;5.80;;
50757;SDS011;36732;47.980;11.652;2022-12-07T15:26:35;6.25;;;5.60;;
50757;SDS011;36732;47.980;11.652;2022-12-07T15:29:02;6.68;;;5.68;;
50757;SDS011;36732;47.980;11.652;2022-12-07T15:31:28;6.80;;;6.10;;
50757;SDS011;36732;47.980;11.652;2022-12-07T15:33:54;7.07;;;6.18;;
50757;SDS011;36732;47.980;11.652;2022-12-07T15:36:21;7.10;;;6.20;;
50757;SDS011;36732;47.980;11.652;2022-12-07T15:38:50;6.80;;;6.10;;
50757;SDS011;36732;47.980;11.652;2022-12-07T15:41:17;6.97;;;6.28;;
50757;SDS011;36732;47.980;11.652;2022-12-07T15:43:43;5.78;;;5.22;;
50757;SDS011;36732;47.980;11.652;2022-12-07T15:46:38;6.25;;;5.65;;
50757;SDS011;36732;47.980;11.652;2022-12-07T15:49:08;6.95;;;6.25;;
50757;SDS011;36732;47.980;11.652;2022-12-07T15:51:43;7.05;;;6.35;;
50757;SDS011;36732;47.980;11.652;2022-12-07T15:54:13;6.88;;;6.25;;
50757;SDS011;36732;47.980;11.652;2022-12-07T15:56:46;6.95;;;6.25;;
50757;SDS011;36732;47.980;11.652;2022-12-07T15:59:12;8.35;;;6.57;;
50757;SDS011;36732;47.980;11.652;2022-12-07T16:01:37;6.88;;;5.88;;
50757;SDS011;36732;47.980;11.652;2022-12-07T16:04:03;6.72;;;5.70;;
50757;SDS011;36732;47.980;11.652;2022-12-07T16:06:29;6.55;;;5.45;;
50757;SDS011;36732;47.980;11.652;2022-12-07T16:08:55;6.10;;;5.50;;
50757;SDS011;36732;47.980;11.652;2022-12-07T16:11:20;8.20;;;6.22;;
50757;SDS011;36732;47.980;11.652;2022-12-07T16:13:46;6.13;;;5.40;;
50757;SDS011;36732;47.980;11.652;2022-12-07T16:16:13;6.07;;;5.45;;
50757;SDS011;36732;47.980;11.652;2022-12-07T16:18:42;6.53;;;5.82;;
50757;SDS011;36732;47.980;11.652;2022-12-07T16:21:10;10.68;;;9.07;;
50757;SDS011;36732;47.980;11.652;2022-12-07T16:23:36;10.90;;;9.70;;
50757;SDS011;36732;47.980;11.652;2022-12-07T16:26:05;11.43;;;9.23;;
50757;SDS011;36732;47.980;11.652;2022-12-07T16:28:36;10.77;;;9.60;;
50757;SDS011;36732;47.980;11.652;2022-12-07T16:31:03;11.63;;;9.35;;
50757;SDS011;36732;47.980;11.652;2022-12-07T16:33:35;11.70;;;9.32;;
50757;SDS011;36732;47.980;11.652;2022-12-07T16:36:02;11.38;;;9.30;;
50757;SDS011;36732;47.980;11.652;2022-12-07T16:38:30;9.90;;;8.50;;
50757;SDS011;36732;47.980;11.652;2022-12-07T16:40:56;12.50;;;11.05;;
50757;SDS011;36732;47.980;11.652;2022-12-07T16:43:21;12.63;;;9.55;;
50757;SDS011;36732;47.980;11.652;2022-12-07T16:45:47;11.82;;;9.73;;
50757;SDS011;36732;47.980;11.652;2022-12-07T16:48:14;10.80;;;8.23;;
50757;SDS011;36732;47.980;11.652;2022-12-07T16:50:40;7.80;;;6.97;;
50757;SDS011;36732;47.980;11.652;2022-12-07T16:53:10;7.88;;;7.07;;
50757;SDS011;36732;47.980;11.652;2022-12-07T16:55:38;8.63;;;7.35;;
50757;SDS011;36732;47.980;11.652;2022-12-07T16:58:05;9.93;;;7.60;;
50757;SDS011;36732;47.980;11.652;2022-12-07T17:00:31;11.20;;;8.30;;
50757;SDS011;36732;47.980;11.652;2022-12-07T17:02:58;10.57;;;7.93;;
50757;SDS011;36732;47.980;11.652;2022-12-07T17:05:24;10.35;;;8.15;;
50757;SDS011;36732;47.980;11.652;2022-12-07T17:07:56;10.80;;;9.07;;
50757;SDS011;36732;47.980;11.652;2022-12-07T17:10:22;11.15;;;9.48;;
50757;SDS011;36732;47.980;11.652;2022-12-07T17:12:49;12.27;;;9.75;;
50757;SDS011;36732;47.980;11.652;2022-12-07T17:15:15;11.70;;;9.80;;
50757;SDS011;36732;47.980;11.652;2022-12-07T17:17:41;12.55;;;9.45;;
50757;SDS011;36732;47.980;11.652;2022-12-07T17:20:09;11.52;;;9.82;;
50757;SDS011;36732;47.980;11.652;2022-12-07T17:22:35;12.75;;;11.13;;